createdAt,value
2019-05-03T00:01:02.410Z,9.03
2019-05-03T00:03:32.009Z,9.30
2019-05-03T00:06:06.955Z,10.37
2019-05-03T00:08:36.834Z,9.47
2019-05-03T00:11:08.127Z,9.27
2019-05-03T00:13:37.828Z,9.43
2019-05-03T00:16:18.325Z,10.27
2019-05-03T00:18:47.365Z,10.43
2019-05-03T00:21:18.498Z,10.10
2019-05-03T00:23:49.369Z,9.40
2019-05-03T00:26:22.497Z,10.03
2019-05-03T00:28:52.381Z,10.07
2019-05-03T00:31:22.602Z,10.63
2019-05-03T00:33:53.097Z,10.40
2019-05-03T00:36:30.094Z,10.00
2019-05-03T00:39:04.324Z,9.60
2019-05-03T00:41:34.300Z,9.03
2019-05-03T00:44:03.896Z,11.27
2019-05-03T00:46:34.185Z,9.70
2019-05-03T00:49:05.342Z,10.57
2019-05-03T00:51:36.234Z,10.27
2019-05-03T00:54:07.032Z,10.30
2019-05-03T00:56:36.986Z,9.60
2019-05-03T00:59:05.957Z,10.50
2019-05-03T01:04:26.154Z,10.60
2019-05-03T01:06:54.857Z,10.23
2019-05-03T01:09:25.591Z,9.93
2019-05-03T01:11:55.196Z,11.17
2019-05-03T01:14:25.010Z,10.67
2019-05-03T01:16:54.483Z,10.60
2019-05-03T01:19:23.379Z,10.43
2019-05-03T01:21:52.084Z,11.17
2019-05-03T01:24:21.736Z,11.17
2019-05-03T01:26:52.592Z,11.80
2019-05-03T01:29:22.919Z,10.67
2019-05-03T01:31:52.789Z,10.70
2019-05-03T01:34:22.480Z,11.60
2019-05-03T01:36:51.875Z,11.50
2019-05-03T01:39:22.219Z,10.40
2019-05-03T01:41:51.932Z,11.10
2019-05-03T01:44:21.983Z,11.73
2019-05-03T01:46:52.507Z,10.87
2019-05-03T01:49:25.996Z,11.00
2019-05-03T01:51:56.279Z,11.43
2019-05-03T01:54:25.163Z,11.00
2019-05-03T01:56:58.740Z,11.47
2019-05-03T01:59:24.483Z,11.03
2019-05-03T02:01:54.792Z,11.53
2019-05-03T02:04:34.872Z,11.33
2019-05-03T02:07:04.527Z,10.90
2019-05-03T02:09:33.314Z,10.77
2019-05-03T02:12:07.013Z,11.00
2019-05-03T02:14:36.647Z,11.27
2019-05-03T02:17:06.172Z,11.30
2019-05-03T02:19:34.960Z,10.83
2019-05-03T02:22:03.789Z,11.80
2019-05-03T02:24:34.180Z,11.07
2019-05-03T02:27:07.144Z,11.43
2019-05-03T02:29:36.740Z,10.30
2019-05-03T02:32:07.205Z,11.00
2019-05-03T02:34:38.683Z,11.43
2019-05-03T02:37:07.952Z,10.33
2019-05-03T02:39:38.322Z,11.30
2019-05-03T02:42:11.742Z,11.77
2019-05-03T02:44:40.596Z,11.60
2019-05-03T02:47:28.050Z,10.50
2019-05-03T02:50:00.918Z,11.03
2019-05-03T02:52:36.954Z,11.73
2019-05-03T02:55:10.855Z,12.10
2019-05-03T02:57:39.714Z,11.57
2019-05-03T03:00:11.103Z,12.43
2019-05-03T03:02:40.770Z,13.07
2019-05-03T03:05:10.297Z,12.13
2019-05-03T03:07:45.901Z,12.53
2019-05-03T03:10:12.051Z,11.87
2019-05-03T03:12:46.220Z,12.13
2019-05-03T03:15:16.113Z,11.57
2019-05-03T03:17:46.592Z,13.53
2019-05-03T03:20:16.482Z,11.73
2019-05-03T03:22:46.385Z,12.17
2019-05-03T03:25:18.217Z,11.77
2019-05-03T03:27:51.726Z,13.47
2019-05-03T03:30:39.839Z,13.67
2019-05-03T03:33:11.604Z,12.90
2019-05-03T03:35:42.584Z,12.40
2019-05-03T03:38:11.425Z,12.97
2019-05-03T03:40:40.691Z,13.20
2019-05-03T03:43:11.664Z,11.93
2019-05-03T03:45:41.003Z,12.80
2019-05-03T03:48:11.486Z,13.70
2019-05-03T03:50:41.857Z,14.10
2019-05-03T03:53:15.458Z,13.80
2019-05-03T03:55:47.001Z,13.37
2019-05-03T03:58:23.007Z,14.70
2019-05-03T04:00:49.743Z,13.27
2019-05-03T04:03:19.671Z,13.23
2019-05-03T04:05:48.465Z,13.70
2019-05-03T04:08:18.329Z,14.57
2019-05-03T04:10:48.120Z,13.90
2019-05-03T04:13:19.185Z,14.47
2019-05-03T04:15:59.136Z,13.07
2019-05-03T04:18:30.340Z,15.03
2019-05-03T04:20:59.541Z,14.87
2019-05-03T04:23:30.245Z,14.33
2019-05-03T04:25:59.135Z,13.67
2019-05-03T04:28:28.593Z,14.40
2019-05-03T04:30:57.658Z,15.63
2019-05-03T04:33:27.056Z,14.00
2019-05-03T04:35:56.071Z,13.97
2019-05-03T04:38:28.041Z,15.70
2019-05-03T04:41:00.286Z,14.67
2019-05-03T04:43:30.625Z,14.57
2019-05-03T04:46:06.540Z,14.00
2019-05-03T04:48:35.772Z,13.57
2019-05-03T04:51:06.320Z,11.33
2019-05-03T04:53:39.881Z,13.20
2019-05-03T04:56:08.633Z,11.63
2019-05-03T04:58:37.525Z,12.07
2019-05-03T05:01:08.900Z,12.37
2019-05-03T05:03:39.568Z,12.73
2019-05-03T05:06:08.322Z,11.33
2019-05-03T05:08:37.182Z,12.53
2019-05-03T05:11:10.390Z,10.57
2019-05-03T05:13:41.553Z,11.80
2019-05-03T05:16:10.276Z,10.83
2019-05-03T05:18:45.692Z,10.80
2019-05-03T05:21:16.306Z,10.77
2019-05-03T05:23:51.702Z,11.40
2019-05-03T05:26:21.904Z,10.97
2019-05-03T05:28:54.980Z,10.47
2019-05-03T05:31:25.473Z,11.00
2019-05-03T05:33:55.963Z,10.37
2019-05-03T05:36:26.371Z,10.53
2019-05-03T05:38:55.391Z,9.47
2019-05-03T05:41:24.550Z,9.67
2019-05-03T05:43:54.972Z,9.70
2019-05-03T05:46:25.464Z,8.73
2019-05-03T05:48:55.619Z,9.30
2019-05-03T05:51:24.979Z,8.63
2019-05-03T05:53:54.937Z,9.20
2019-05-03T05:56:31.538Z,8.17
2019-05-03T05:59:01.883Z,7.73
2019-05-03T06:01:32.247Z,8.27
2019-05-03T06:04:01.983Z,7.43
2019-05-03T06:06:37.255Z,8.13
2019-05-03T06:09:18.783Z,7.67
2019-05-03T06:11:53.122Z,7.53
2019-05-03T06:14:26.748Z,7.83
2019-05-03T06:16:57.269Z,8.07
2019-05-03T06:19:34.567Z,5.50
2019-05-03T06:22:05.152Z,5.23
2019-05-03T06:24:35.850Z,3.97
2019-05-03T06:27:24.528Z,4.00
2019-05-03T06:29:58.360Z,3.37
2019-05-03T06:32:34.702Z,2.70
2019-05-03T06:35:05.071Z,2.63
2019-05-03T06:37:37.153Z,2.73
2019-05-03T06:40:07.397Z,2.80
2019-05-03T06:42:51.535Z,2.40
2019-05-03T06:45:11.848Z,2.17
2019-05-03T06:47:46.018Z,2.53
2019-05-03T06:50:11.255Z,2.43
2019-05-03T06:52:39.986Z,3.07
2019-05-03T06:55:10.727Z,2.47
2019-05-03T06:57:45.598Z,2.33
2019-05-03T07:00:17.871Z,2.50
2019-05-03T07:02:54.559Z,2.50
2019-05-03T07:05:32.646Z,2.77
2019-05-03T07:08:19.281Z,2.03
2019-05-03T07:10:49.882Z,2.50
2019-05-03T07:13:18.673Z,2.50
2019-05-03T07:15:47.344Z,2.30
2019-05-03T07:18:17.421Z,2.10
2019-05-03T07:20:54.365Z,2.37
2019-05-03T07:23:24.357Z,2.37
2019-05-03T07:25:55.165Z,2.50
2019-05-03T07:28:25.585Z,2.53
2019-05-03T07:30:55.740Z,2.37
2019-05-03T07:33:26.163Z,2.87
2019-05-03T07:35:54.872Z,2.37
2019-05-03T07:38:28.235Z,2.50
2019-05-03T07:40:57.124Z,3.03
2019-05-03T07:43:26.587Z,2.47
2019-05-03T07:45:55.397Z,2.20
2019-05-03T07:48:26.861Z,2.80
2019-05-03T07:50:55.647Z,2.57
2019-05-03T07:53:25.414Z,2.50
2019-05-03T07:55:55.740Z,3.20
2019-05-03T07:58:35.150Z,3.43
2019-05-03T08:01:10.143Z,2.70
2019-05-03T08:03:39.266Z,4.00
2019-05-03T08:06:08.247Z,2.67
2019-05-03T08:08:51.462Z,2.57
2019-05-03T08:11:20.556Z,3.10
2019-05-03T08:13:55.277Z,2.73
2019-05-03T08:16:25.052Z,2.93
2019-05-03T08:18:55.834Z,3.23
2019-05-03T08:21:25.260Z,2.73
2019-05-03T08:23:56.877Z,3.40
2019-05-03T08:26:29.206Z,2.73
2019-05-03T08:29:12.672Z,2.67
2019-05-03T08:31:39.237Z,2.70
2019-05-03T08:34:12.625Z,3.10
2019-05-03T08:37:00.444Z,2.90
2019-05-03T08:39:29.283Z,2.50
2019-05-03T08:42:04.828Z,2.77
2019-05-03T08:44:35.480Z,3.13
2019-05-03T08:47:08.452Z,2.93
2019-05-03T08:49:40.315Z,2.73
2019-05-03T08:52:10.340Z,2.67
2019-05-03T08:54:39.155Z,2.70
2019-05-03T08:57:09.062Z,3.23
2019-05-03T08:59:37.711Z,2.87
2019-05-03T09:02:17.790Z,2.43
2019-05-03T09:04:43.248Z,2.20
2019-05-03T09:07:14.806Z,2.50
2019-05-03T09:09:47.809Z,2.60
2019-05-03T09:12:18.240Z,2.30
2019-05-03T09:14:49.780Z,2.77
2019-05-03T09:17:18.439Z,2.80
2019-05-03T09:19:48.853Z,2.77
2019-05-03T09:22:18.075Z,2.80
2019-05-03T09:24:47.999Z,2.87
2019-05-03T09:27:17.608Z,2.00
2019-05-03T09:29:46.995Z,2.80
2019-05-03T09:32:19.363Z,2.90
2019-05-03T09:34:48.084Z,2.50
2019-05-03T09:37:19.887Z,2.40
2019-05-03T09:39:50.289Z,2.60
2019-05-03T09:42:19.241Z,2.87
2019-05-03T09:44:57.486Z,2.53
2019-05-03T09:47:28.322Z,3.50
2019-05-03T09:50:02.116Z,3.17
2019-05-03T09:52:32.194Z,2.70
2019-05-03T09:55:21.347Z,3.23
2019-05-03T09:57:52.091Z,3.17
2019-05-03T10:00:24.539Z,2.80
2019-05-03T10:02:54.844Z,2.97
2019-05-03T10:05:26.096Z,2.50
2019-05-03T10:07:58.597Z,2.50
2019-05-03T10:10:30.935Z,2.67
2019-05-03T10:13:00.235Z,3.03
2019-05-03T10:15:47.494Z,2.87
2019-05-03T10:18:18.730Z,2.73
2019-05-03T10:20:48.502Z,2.50
2019-05-03T10:23:45.376Z,2.43
2019-05-03T10:26:17.036Z,2.97
2019-05-03T10:28:46.012Z,2.90
2019-05-03T10:31:21.275Z,2.30
2019-05-03T10:33:57.585Z,2.57
2019-05-03T10:36:27.475Z,2.30
2019-05-03T10:39:01.545Z,2.57
2019-05-03T10:41:30.778Z,2.63
2019-05-03T10:43:59.520Z,2.70
2019-05-03T10:46:30.525Z,2.50
2019-05-03T10:48:59.206Z,2.43
2019-05-03T10:51:29.651Z,2.70
2019-05-03T10:54:00.048Z,2.40
2019-05-03T10:56:37.355Z,2.40
2019-05-03T10:59:08.089Z,2.50
2019-05-03T11:01:38.889Z,2.83
2019-05-03T11:04:07.654Z,2.30
2019-05-03T11:06:36.333Z,2.60
2019-05-03T11:09:06.993Z,2.13
2019-05-03T11:11:35.814Z,2.27
2019-05-03T11:14:05.484Z,2.50
2019-05-03T11:16:36.507Z,3.57
2019-05-03T11:19:05.610Z,2.03
2019-05-03T11:21:34.869Z,1.70
2019-05-03T11:24:05.399Z,2.20
2019-05-03T11:26:37.312Z,1.70
2019-05-03T11:29:07.439Z,1.97
2019-05-03T11:31:47.391Z,2.03
2019-05-03T11:34:22.368Z,1.83
2019-05-03T11:37:08.767Z,1.73
2019-05-03T11:39:38.021Z,1.90
2019-05-03T11:42:12.683Z,1.27
2019-05-03T11:44:38.635Z,1.63
2019-05-03T11:47:09.491Z,1.37
2019-05-03T11:49:38.785Z,1.77
2019-05-03T11:52:10.447Z,1.57
2019-05-03T11:54:45.323Z,1.77
2019-05-03T11:57:26.610Z,2.00
2019-05-03T11:59:58.916Z,2.13
2019-05-03T12:02:35.200Z,1.83
2019-05-03T12:05:11.378Z,1.77
2019-05-03T12:07:42.001Z,1.90
2019-05-03T12:10:26.610Z,1.43
2019-05-03T12:12:55.743Z,1.83
2019-05-03T12:15:24.759Z,1.57
2019-05-03T12:17:59.203Z,1.50
2019-05-03T12:20:29.897Z,1.70
2019-05-03T12:23:01.381Z,1.80
2019-05-03T12:25:31.252Z,1.10
2019-05-03T12:28:00.393Z,1.80
2019-05-03T12:30:29.216Z,1.63
2019-05-03T12:32:58.618Z,2.40
2019-05-03T12:35:27.404Z,1.80
2019-05-03T12:37:57.516Z,1.70
2019-05-03T12:40:26.853Z,1.73
2019-05-03T12:43:00.684Z,1.43
2019-05-03T12:45:30.458Z,1.50
2019-05-03T12:48:06.635Z,1.77
2019-05-03T12:50:35.334Z,1.57
2019-05-03T12:53:05.292Z,2.10
2019-05-03T12:55:35.574Z,1.73
2019-05-03T12:58:12.371Z,2.07
2019-05-03T13:00:38.671Z,1.90
2019-05-03T13:03:12.706Z,1.57
2019-05-03T13:05:44.971Z,1.67
2019-05-03T13:08:35.407Z,1.63
2019-05-03T13:11:05.296Z,1.37
2019-05-03T13:13:35.816Z,1.17
2019-05-03T13:16:08.233Z,1.20
2019-05-03T13:18:39.469Z,1.60
2019-05-03T13:21:08.487Z,1.50
2019-05-03T13:23:37.277Z,1.60
2019-05-03T13:26:08.679Z,1.33
2019-05-03T13:28:37.502Z,1.33
2019-05-03T13:31:09.092Z,1.30
2019-05-03T13:33:40.920Z,1.20
2019-05-03T13:36:10.610Z,1.37
2019-05-03T13:38:41.183Z,1.50
2019-05-03T13:41:09.970Z,1.40
2019-05-03T13:43:42.541Z,1.70
2019-05-03T13:46:11.319Z,1.40
2019-05-03T13:48:46.645Z,1.93
2019-05-03T13:51:15.984Z,1.40
2019-05-03T13:53:45.790Z,1.53
2019-05-03T13:56:17.401Z,1.50
2019-05-03T13:58:48.229Z,1.60
2019-05-03T14:01:17.074Z,1.67
2019-05-03T14:03:46.120Z,1.57
2019-05-03T14:06:29.668Z,1.40
2019-05-03T14:08:59.558Z,1.83
2019-05-03T14:11:29.008Z,1.90
2019-05-03T14:13:57.669Z,2.07
2019-05-03T14:16:26.977Z,1.60
2019-05-03T14:18:57.370Z,1.57
2019-05-03T14:21:29.149Z,1.60
2019-05-03T14:24:15.796Z,1.60
2019-05-03T14:26:44.945Z,1.50
2019-05-03T14:29:15.616Z,1.70
2019-05-03T14:31:50.536Z,1.83
2019-05-03T14:34:19.227Z,1.37
2019-05-03T14:36:48.142Z,1.27
2019-05-03T14:39:18.256Z,2.07
2019-05-03T14:41:48.825Z,1.20
2019-05-03T14:44:18.359Z,1.77
2019-05-03T14:46:58.831Z,1.30
2019-05-03T14:49:25.427Z,1.43
2019-05-03T14:51:56.797Z,1.43
2019-05-03T14:54:27.283Z,1.17
2019-05-03T14:57:14.531Z,1.37
2019-05-03T14:59:47.666Z,1.50
2019-05-03T15:02:24.464Z,1.67
2019-05-03T15:04:55.959Z,1.23
2019-05-03T15:07:25.540Z,1.00
2019-05-03T15:09:58.138Z,0.83
2019-05-03T15:12:28.572Z,1.17
2019-05-03T15:14:58.634Z,1.57
2019-05-03T15:17:28.063Z,0.90
2019-05-03T15:20:00.962Z,0.93
2019-05-03T15:22:29.800Z,1.47
2019-05-03T15:25:00.143Z,1.67
2019-05-03T15:27:29.031Z,1.87
2019-05-03T15:30:00.401Z,1.40
2019-05-03T15:32:29.133Z,1.30
2019-05-03T15:34:57.844Z,1.40
2019-05-03T15:37:27.652Z,1.13
2019-05-03T15:39:57.906Z,1.23
2019-05-03T15:42:30.263Z,1.33
2019-05-03T15:45:00.575Z,1.47
2019-05-03T15:47:33.421Z,1.33
2019-05-03T15:50:02.079Z,2.03
2019-05-03T15:52:35.274Z,1.93
2019-05-03T15:55:07.494Z,1.63
2019-05-03T15:57:36.667Z,1.90
2019-05-03T16:00:10.743Z,1.77
2019-05-03T16:02:39.460Z,1.40
2019-05-03T16:05:15.603Z,1.77
2019-05-03T16:07:45.518Z,1.50
2019-05-03T16:10:16.798Z,1.30
2019-05-03T16:12:46.456Z,1.30
2019-05-03T16:15:20.054Z,1.30
2019-05-03T16:17:51.713Z,1.73
2019-05-03T16:20:21.695Z,1.50
2019-05-03T16:22:55.007Z,1.50
2019-05-03T16:25:25.245Z,1.30
2019-05-03T16:27:59.667Z,1.70
2019-05-03T16:30:36.375Z,1.23
2019-05-03T16:33:04.810Z,1.30
2019-05-03T16:35:46.717Z,1.17
2019-05-03T16:38:15.754Z,1.30
2019-05-03T16:40:45.440Z,1.50
2019-05-03T16:43:17.453Z,1.40
2019-05-03T16:45:48.499Z,1.67
2019-05-03T16:48:19.954Z,1.40
2019-05-03T16:50:48.691Z,1.07
2019-05-03T16:53:20.965Z,1.80
2019-05-03T16:55:54.803Z,1.40
2019-05-03T16:58:25.127Z,1.43
2019-05-03T17:00:55.323Z,1.23
2019-05-03T17:03:38.148Z,1.67
2019-05-03T17:05:59.053Z,1.70
2019-05-03T17:08:45.988Z,1.70
2019-05-03T17:11:20.505Z,1.70
2019-05-03T17:13:55.370Z,1.43
2019-05-03T17:16:22.517Z,1.67
2019-05-03T17:18:51.219Z,1.60
2019-05-03T17:21:34.965Z,1.40
2019-05-03T17:24:04.357Z,2.33
2019-05-03T17:26:35.125Z,1.87
2019-05-03T17:29:04.997Z,1.83
2019-05-03T17:31:35.214Z,1.70
2019-05-03T17:34:07.976Z,1.30
2019-05-03T17:36:40.268Z,1.30
2019-05-03T17:39:11.867Z,1.53
2019-05-03T17:42:00.248Z,1.17
2019-05-03T17:44:30.841Z,1.67
2019-05-03T17:46:59.614Z,1.30
2019-05-03T17:49:28.631Z,1.30
2019-05-03T17:52:06.184Z,1.50
2019-05-03T17:54:40.047Z,1.40
2019-05-03T17:57:15.620Z,2.20
2019-05-03T17:59:59.991Z,1.30
2019-05-03T18:02:40.138Z,1.43
2019-05-03T18:05:27.474Z,2.23
2019-05-03T18:08:11.545Z,1.90
2019-05-03T18:10:42.598Z,1.50
2019-05-03T18:13:12.074Z,1.60
2019-05-03T18:15:41.808Z,2.10
2019-05-03T18:18:11.547Z,1.53
2019-05-03T18:20:41.964Z,2.00
2019-05-03T18:23:11.565Z,2.13
2019-05-03T18:25:41.368Z,2.30
2019-05-03T18:28:10.167Z,2.73
2019-05-03T18:30:39.091Z,1.93
2019-05-03T18:33:07.971Z,2.10
2019-05-03T18:35:38.926Z,2.63
2019-05-03T18:38:09.027Z,2.87
2019-05-03T18:40:38.415Z,2.67
2019-05-03T18:43:11.675Z,2.40
2019-05-03T18:45:45.386Z,2.77
2019-05-03T18:48:14.411Z,2.90
2019-05-03T18:50:45.667Z,2.73
2019-05-03T18:53:15.294Z,2.90
2019-05-03T18:55:44.999Z,2.50
2019-05-03T18:58:14.889Z,3.00
2019-05-03T19:00:45.463Z,2.63
2019-05-03T19:03:15.685Z,2.23
2019-05-03T19:05:46.800Z,2.07
2019-05-03T19:08:35.138Z,2.40
2019-05-03T19:11:26.024Z,2.47
2019-05-03T19:14:01.443Z,2.60
2019-05-03T19:16:45.550Z,2.40
2019-05-03T19:19:15.958Z,2.03
2019-05-03T19:21:47.262Z,2.03
2019-05-03T19:24:16.773Z,2.00
2019-05-03T19:26:45.517Z,1.97
2019-05-03T19:29:22.236Z,2.23
2019-05-03T19:31:47.603Z,1.63
2019-05-03T19:34:18.667Z,2.23
2019-05-03T19:36:48.652Z,2.40
2019-05-03T19:39:19.027Z,2.20
2019-05-03T19:41:49.350Z,1.80
2019-05-03T19:44:19.471Z,1.93
2019-05-03T19:46:48.155Z,2.60
2019-05-03T19:49:20.224Z,3.13
2019-05-03T19:51:49.053Z,2.27
2019-05-03T19:54:17.812Z,2.53
2019-05-03T19:56:47.809Z,2.57
2019-05-03T19:59:34.883Z,2.33
2019-05-03T20:02:05.637Z,2.47
2019-05-03T20:04:42.428Z,2.63
2019-05-03T20:07:25.186Z,2.60
2019-05-03T20:09:56.813Z,2.87
2019-05-03T20:12:26.088Z,3.03
2019-05-03T20:15:00.140Z,2.37
2019-05-03T20:17:30.466Z,2.23
2019-05-03T20:19:59.680Z,3.00
2019-05-03T20:22:31.364Z,2.90
2019-05-03T20:25:01.545Z,3.03
2019-05-03T20:27:31.332Z,3.10
2019-05-03T20:30:01.853Z,2.60
2019-05-03T20:32:34.498Z,3.10
2019-05-03T20:35:16.229Z,2.63
2019-05-03T20:37:38.045Z,2.70
2019-05-03T20:40:08.174Z,2.97
2019-05-03T20:42:58.212Z,2.93
2019-05-03T20:45:46.783Z,2.87
2019-05-03T20:48:28.937Z,3.20
2019-05-03T20:50:59.346Z,2.93
2019-05-03T20:53:29.277Z,3.93
2019-05-03T20:55:59.241Z,5.13
2019-05-03T20:58:29.492Z,5.43
2019-05-03T21:01:00.544Z,5.50
2019-05-03T21:03:30.881Z,4.03
2019-05-03T21:06:02.324Z,3.37
2019-05-03T21:08:31.279Z,3.60
2019-05-03T21:11:00.185Z,3.13
2019-05-03T21:13:39.906Z,3.17
2019-05-03T21:16:07.796Z,3.47
2019-05-03T21:18:41.407Z,3.73
2019-05-03T21:21:21.928Z,3.20
2019-05-03T21:24:08.270Z,3.60
2019-05-03T21:26:45.163Z,3.50
2019-05-03T21:29:19.724Z,4.03
2019-05-03T21:31:49.169Z,2.93
2019-05-03T21:37:07.710Z,3.33
2019-05-03T21:39:36.433Z,3.67
2019-05-03T21:42:08.856Z,2.90
2019-05-03T21:44:37.529Z,3.10
2019-05-03T21:47:11.032Z,3.73
2019-05-03T21:49:44.554Z,3.53
2019-05-03T21:52:14.807Z,3.50
2019-05-03T21:54:45.089Z,3.83
2019-05-03T21:57:16.622Z,4.10
2019-05-03T21:59:45.916Z,3.90
2019-05-03T22:02:16.192Z,3.47
2019-05-03T22:04:46.947Z,4.20
2019-05-03T22:07:15.784Z,4.30
2019-05-03T22:09:45.365Z,4.33
2019-05-03T22:12:14.472Z,3.60
2019-05-03T22:14:47.890Z,4.53
2019-05-03T22:17:26.662Z,4.53
2019-05-03T22:19:57.543Z,4.87
2019-05-03T22:22:34.195Z,4.83
2019-05-03T22:25:07.220Z,4.57
2019-05-03T22:27:40.556Z,6.37
2019-05-03T22:30:14.053Z,6.00
2019-05-03T22:32:40.108Z,5.07
2019-05-03T22:35:10.729Z,6.10
2019-05-03T22:37:40.857Z,5.73
2019-05-03T22:40:14.481Z,6.27
2019-05-03T22:42:44.660Z,6.07
2019-05-03T22:45:16.915Z,5.67
2019-05-03T22:47:46.159Z,5.87
2019-05-03T22:50:15.060Z,6.20
2019-05-03T22:52:45.858Z,5.77
2019-05-03T22:55:15.284Z,6.53
2019-05-03T22:57:44.065Z,6.03
2019-05-03T23:00:14.628Z,6.50
2019-05-03T23:02:45.545Z,6.33
2019-05-03T23:05:15.586Z,6.50
2019-05-03T23:07:46.875Z,6.40
2019-05-03T23:10:17.263Z,6.57
2019-05-03T23:12:48.543Z,6.63
2019-05-03T23:15:18.735Z,7.17
2019-05-03T23:17:47.474Z,7.30
2019-05-03T23:20:20.442Z,7.13
2019-05-03T23:22:51.607Z,6.67
2019-05-03T23:25:21.174Z,7.07
2019-05-03T23:27:55.145Z,6.53
2019-05-03T23:30:22.407Z,6.87
2019-05-03T23:32:54.712Z,7.67
2019-05-03T23:35:24.664Z,7.07
2019-05-03T23:37:54.400Z,7.13
2019-05-03T23:40:25.286Z,7.20
2019-05-03T23:42:58.957Z,7.13
2019-05-03T23:45:28.108Z,6.57
2019-05-03T23:47:59.148Z,7.07
2019-05-03T23:50:37.514Z,7.57
2019-05-03T23:53:06.193Z,7.50
2019-05-03T23:55:46.116Z,8.27
2019-05-03T23:58:17.817Z,7.67
